Time;durP1;ratioP1;P1;durP2;ratioP2;P2;SDS_P1;SDS_P2;PMS_P1;PMS_P2;Temp;Humidity;BMP_temperature;BMP_pressure;BME280_temperature;BME280_humidity;BME280_pressure;Samples;Min_cycle;Max_cycle;Signal;HPM_P1;HPM_P2
2021/03/23 00:04:49;;;;;;;24.18;10.32;;;;;;;0.51;74.08;100039.23;252118;1105;115951;-62
2021/03/23 00:09:55;;;;;;;;;;;;;;;0.41;75.60;100038.55;252787;1105;114991;-65
2021/03/23 00:15:00;;;;;;;19.12;9.43;;;;;;;0.37;75.13;100029.36;252803;1105;104595;-64
2021/03/23 00:20:06;;;;;;;22.17;10.35;;;;;;;0.32;75.74;100024.59;252837;1105;115463;-64
2021/03/23 00:25:11;;;;;;;26.17;10.50;;;;;;;0.34;75.42;100035.74;252398;1105;115369;-63
2021/03/23 00:30:14;;;;;;;28.70;12.90;;;;;;;0.40;74.25;100036.91;251623;1105;115440;-64
2021/03/23 00:35:19;;;;;;;27.10;13.97;;;;;;;0.45;76.21;100039.05;251653;1105;114751;-64
2021/03/23 00:40:28;;;;;;;26.90;12.50;;;;;;;0.39;75.82;100042.31;252676;1105;115849;-65
2021/03/23 00:45:36;;;;;;;22.95;10.90;;;;;;;0.33;76.55;100036.72;251673;1105;115200;-63
2021/03/23 00:50:41;;;;;;;28.73;13.53;;;;;;;0.28;75.63;100040.84;252353;1105;115477;-64
2021/03/23 00:55:46;;;;;;;34.33;12.60;;;;;;;0.29;75.78;100045.92;252204;1105;115067;-64
2021/03/23 01:00:50;;;;;;;28.35;12.80;;;;;;;0.26;75.97;100043.62;251593;1105;115069;-65
2021/03/23 01:05:54;;;;;;;23.83;13.85;;;;;;;0.23;76.77;100049.18;251986;1105;114922;-64
2021/03/23 01:10:58;;;;;;;26.95;13.25;;;;;;;0.18;77.41;100034.91;252696;1105;115807;-65
2021/03/23 01:16:04;;;;;;;26.33;11.20;;;;;;;0.17;76.66;100036.70;253234;1104;114804;-65
2021/03/23 01:21:08;;;;;;;22.95;12.18;;;;;;;0.13;76.56;100035.38;253950;1104;115456;-68
2021/03/23 01:26:12;;;;;;;30.50;14.50;;;;;;;0.21;74.31;100037.21;253545;1105;115722;-68
2021/03/23 01:31:16;;;;;;;27.80;13.10;;;;;;;0.25;75.17;100035.91;253150;1105;116838;-68
2021/03/23 01:36:22;;;;;;;27.00;13.50;;;;;;;0.32;73.42;100045.57;252900;1104;117308;-67
2021/03/23 01:41:26;;;;;;;22.90;10.88;;;;;;;0.31;76.24;100037.86;252149;1105;116447;-67
2021/03/23 01:46:46;;;;;;;25.62;12.47;;;;;;;0.40;73.37;100041.33;254748;1104;115694;-68
2021/03/23 01:51:59;;;;;;;24.98;11.33;;;;;;;0.45;73.17;100034.63;253564;1105;116354;-67
2021/03/23 01:57:09;;;;;;;24.02;10.72;;;;;;;0.51;71.25;100035.78;251512;1105;116373;-64
2021/03/23 02:02:13;;;;;;;20.15;11.70;;;;;;;0.53;71.44;100033.81;253848;1105;115893;-67
2021/03/23 02:07:21;;;;;;;21.43;11.00;;;;;;;0.55;71.13;100031.85;253082;1105;217946;-67
2021/03/23 02:12:29;;;;;;;26.97;11.25;;;;;;;0.58;71.74;100032.35;253230;1105;115559;-67
2021/03/23 02:17:37;;;;;;;34.70;13.68;;;;;;;0.58;71.26;100034.98;252391;1105;116613;-66
2021/03/23 02:22:45;;;;;;;22.17;9.33;;;;;;;0.60;70.27;100042.69;252951;1105;118020;-64
2021/03/23 02:27:49;;;;;;;;;;;;;;;0.59;69.79;100036.62;252727;1104;114579;-64
2021/03/23 02:32:52;;;;;;;17.55;9.50;;;;;;;0.55;69.98;100042.34;254017;1105;104270;-66
2021/03/23 02:38:06;;;;;;;23.37;9.47;;;;;;;0.45;69.91;100028.55;251762;1105;115084;-67
2021/03/23 02:43:12;;;;;;;26.52;12.35;;;;;;;0.41;69.50;100035.10;252475;1105;114632;-66
2021/03/23 02:48:16;;;;;;;27.00;12.10;;;;;;;0.36;68.95;100026.90;252492;1104;115770;-65
2021/03/23 02:53:20;;;;;;;22.90;13.55;;;;;;;0.27;69.57;100026.91;252129;1104;115635;-65
2021/03/23 02:58:25;;;;;;;25.57;12.90;;;;;;;0.17;70.39;100026.22;251501;1105;116156;-66
2021/03/23 03:03:29;;;;;;;24.25;11.45;;;;;;;0.09;70.82;100036.68;252552;1104;115051;-66
2021/03/23 03:08:34;;;;;;;24.47;13.28;;;;;;;-0.02;71.86;100044.86;251765;1105;115857;-67
2021/03/23 03:13:38;;;;;;;18.73;11.35;;;;;;;-0.11;71.24;100044.00;252735;1104;116081;-66
2021/03/23 03:18:42;;;;;;;29.65;12.70;;;;;;;-0.24;72.65;100042.78;253419;1105;115313;-66
2021/03/23 03:23:46;;;;;;;22.40;10.37;;;;;;;-0.29;70.95;100045.05;253065;1105;115631;-65
2021/03/23 03:28:51;;;;;;;20.50;10.75;;;;;;;-0.31;70.87;100041.80;253995;1104;116548;-65
2021/03/23 03:33:57;;;;;;;25.88;11.75;;;;;;;-0.27;71.98;100036.06;254923;1104;115331;-66
2021/03/23 03:39:02;;;;;;;25.15;11.53;;;;;;;-0.23;72.59;100034.77;254613;1104;115018;-65
2021/03/23 03:44:06;;;;;;;27.07;11.40;;;;;;;-0.19;72.20;100032.66;254878;1105;114914;-66
2021/03/23 03:49:10;;;;;;;21.93;10.35;;;;;;;-0.17;72.63;100031.53;254973;1104;115040;-66
2021/03/23 03:54:13;;;;;;;27.60;12.47;;;;;;;-0.13;72.47;100037.27;255085;1104;115986;-66
2021/03/23 03:59:17;;;;;;;27.58;12.80;;;;;;;-0.14;71.23;100033.83;253665;1104;117060;-66
2021/03/23 04:04:20;;;;;;;25.85;13.08;;;;;;;-0.13;72.65;100034.66;252138;1104;115868;-67
2021/03/23 04:09:25;;;;;;;32.63;14.50;;;;;;;-0.15;71.94;100045.29;253393;1104;115018;-66
2021/03/23 04:14:28;;;;;;;27.93;12.90;;;;;;;-0.12;73.28;100041.53;252637;1105;115450;-66
2021/03/23 04:19:31;;;;;;;24.23;12.75;;;;;;;-0.14;71.62;100052.17;253237;1105;114920;-66
2021/03/23 04:24:34;;;;;;;26.52;12.43;;;;;;;-0.13;72.66;100042.52;252597;1105;118618;-65
2021/03/23 04:29:37;;;;;;;24.67;13.32;;;;;;;-0.16;71.55;100046.27;252474;1105;116028;-66
2021/03/23 04:34:40;;;;;;;25.20;14.73;;;;;;;-0.23;71.91;100050.49;252602;1104;116087;-66
2021/03/23 04:39:44;;;;;;;30.15;13.00;;;;;;;-0.27;72.96;100046.54;252296;1105;115947;-66
2021/03/23 04:44:46;;;;;;;27.85;13.40;;;;;;;-0.33;71.94;100041.13;251680;1105;116211;-66
2021/03/23 04:49:49;;;;;;;27.02;13.28;;;;;;;-0.39;72.82;100039.95;252737;1105;115789;-65
2021/03/23 04:54:53;;;;;;;28.70;13.72;;;;;;;-0.44;71.78;100043.04;251789;1105;115982;-65
2021/03/23 04:59:57;;;;;;;25.02;12.65;;;;;;;-0.44;72.42;100043.04;251716;1104;115673;-67
2021/03/23 05:05:00;;;;;;;33.42;15.48;;;;;;;-0.46;71.86;100042.38;252859;1104;115769;-66
2021/03/23 05:10:07;;;;;;;28.98;16.05;;;;;;;-0.43;72.82;100052.54;252148;1105;116081;-65
2021/03/23 05:15:10;;;;;;;32.00;15.10;;;;;;;-0.49;72.68;100055.78;251707;1105;116046;-66
2021/03/23 05:20:14;;;;;;;26.87;14.53;;;;;;;-0.51;73.77;100057.73;252126;1105;115876;-66
2021/03/23 05:25:17;;;;;;;29.98;16.15;;;;;;;-0.50;74.03;100061.98;253712;1105;114927;-66
2021/03/23 05:30:22;;;;;;;35.90;15.37;;;;;;;-0.43;73.53;100063.02;252244;1105;114912;-65
2021/03/23 05:35:26;;;;;;;29.37;13.18;;;;;;;-0.29;73.69;100068.63;251581;1105;115633;-65
2021/03/23 05:40:33;;;;;;;33.18;17.20;;;;;;;-0.17;73.76;100081.31;254881;1104;115551;-65
2021/03/23 05:45:41;;;;;;;36.28;14.35;;;;;;;-0.04;73.20;100080.87;254609;1104;115546;-65
2021/03/23 05:51:17;;;;;;;31.62;14.40;;;;;;;0.14;73.34;100071.10;254867;1104;115140;-66
2021/03/23 05:56:24;;;;;;;33.98;16.48;;;;;;;0.36;72.96;100072.30;255019;1104;114754;-65
2021/03/23 06:01:33;;;;;;;33.65;15.58;;;;;;;0.55;72.64;100069.40;253916;1104;114775;-65
2021/03/23 06:07:00;;;;;;;38.45;16.20;;;;;;;0.72;71.60;100072.02;254794;1105;114905;-65
2021/03/23 06:12:59;;;;;;;32.55;16.40;;;;;;;0.97;71.65;100087.61;252721;1104;114916;-66
2021/03/23 06:18:31;;;;;;;18.10;10.80;;;;;;;1.53;69.87;100088.52;253358;1105;115689;-68
2021/03/23 06:23:47;;;;;;;31.53;13.90;;;;;;;1.90;67.92;100085.30;251786;1105;115888;-66
2021/03/23 06:29:05;;;;;;;20.62;11.83;;;;;;;2.24;67.56;100100.77;251654;1105;116202;-65
2021/03/23 06:34:34;;;;;;;20.70;11.08;;;;;;;2.52;67.34;100097.66;253603;1105;115106;-65
2021/03/23 06:39:37;;;;;;;17.83;9.30;;;;;;;2.67;64.95;100098.56;251409;1105;115643;-65
2021/03/23 06:44:43;;;;;;;23.55;12.03;;;;;;;2.98;65.41;100096.69;251743;1105;115414;-66
2021/03/23 06:49:47;;;;;;;22.52;11.48;;;;;;;3.07;65.24;100093.95;252964;1105;116217;-68
2021/03/23 06:55:07;;;;;;;21.33;12.60;;;;;;;2.97;65.76;100097.67;252280;1105;115977;-66
2021/03/23 07:00:15;;;;;;;18.98;9.73;;;;;;;2.89;66.37;100097.73;251673;1105;115456;-63
2021/03/23 07:05:18;;;;;;;;;;;;;;;2.95;67.17;100102.30;252350;1105;117141;-63
2021/03/23 07:10:31;;;;;;;19.37;11.00;;;;;;;3.26;66.86;100098.75;253303;1105;104195;-64
2021/03/23 07:15:39;;;;;;;12.07;6.33;;;;;;;3.85;65.26;100101.45;251570;1105;118870;-64
2021/03/23 07:20:50;;;;;;;12.80;8.30;;;;;;;4.67;64.84;100108.11;251795;1105;115732;-63
2021/03/23 07:25:56;;;;;;;11.73;6.42;;;;;;;5.10;62.43;100116.06;253451;1104;115004;-63
2021/03/23 07:31:32;;;;;;;14.75;7.80;;;;;;;5.06;62.53;100118.26;252099;1105;115969;-64
2021/03/23 07:36:48;;;;;;;17.98;10.20;;;;;;;5.12;63.48;100114.05;252577;1105;116859;-64
2021/03/23 07:42:34;;;;;;;19.95;8.48;;;;;;;4.86;64.49;100106.70;251658;1104;116059;-66
2021/03/23 07:47:49;;;;;;;19.25;11.33;;;;;;;4.85;65.12;100112.98;253340;1105;116179;-64
2021/03/23 07:53:05;;;;;;;12.47;8.83;;;;;;;4.69;65.43;100103.47;254806;1104;117261;-65
2021/03/23 07:58:35;;;;;;;15.53;9.33;;;;;;;4.68;65.35;100104.47;254232;1105;116641;-64
2021/03/23 08:03:46;;;;;;;16.77;8.78;;;;;;;4.74;67.18;100113.47;254102;1105;116250;-64
2021/03/23 08:09:27;;;;;;;10.13;6.97;;;;;;;4.70;68.44;100115.66;254233;1103;114799;-67
2021/03/23 08:14:50;;;;;;;13.32;5.12;;;;;;;4.76;68.15;100127.31;253451;1105;115848;-66
2021/03/23 08:20:17;;;;;;;14.25;8.90;;;;;;;5.06;67.24;100139.39;252487;1105;116332;-67
2021/03/23 08:25:46;;;;;;;6.28;4.55;;;;;;;5.27;66.74;100145.67;251524;1105;115333;-65
2021/03/23 08:31:05;;;;;;;13.73;7.80;;;;;;;5.62;67.95;100135.98;252910;1104;116064;-66
2021/03/23 08:36:36;;;;;;;8.58;6.15;;;;;;;5.64;67.03;100134.78;252784;1105;115609;-66
2021/03/23 08:42:00;;;;;;;7.47;3.50;;;;;;;5.86;65.60;100150.59;253052;1105;114835;-66
2021/03/23 08:47:10;;;;;;;16.87;8.05;;;;;;;6.29;67.10;100161.87;252474;1104;115489;-67
2021/03/23 08:52:32;;;;;;;11.00;5.92;;;;;;;6.72;63.68;100157.16;252314;1105;116348;-65
2021/03/23 08:58:03;;;;;;;11.55;4.83;;;;;;;7.28;61.51;100159.50;252208;1104;116089;-68
2021/03/23 09:03:10;;;;;;;12.10;8.70;;;;;;;7.72;60.86;100162.34;251383;1105;143928;-65
2021/03/23 09:08:28;;;;;;;13.30;8.53;;;;;;;7.54;60.88;100164.00;252906;1105;115849;-64
2021/03/23 09:13:34;;;;;;;10.85;5.12;;;;;;;7.99;62.29;100151.68;252682;1105;116520;-66
2021/03/23 09:19:09;;;;;;;12.95;6.25;;;;;;;8.18;59.87;100169.42;251669;1105;115482;-67
2021/03/23 09:24:30;;;;;;;10.08;7.62;;;;;;;8.40;59.94;100151.39;252123;1105;115368;-64
2021/03/23 09:29:47;;;;;;;8.50;5.87;;;;;;;8.42;57.58;100166.10;251507;1105;114982;-65
2021/03/23 09:35:05;;;;;;;10.75;5.70;;;;;;;8.10;61.80;100165.14;253555;1104;115682;-65
2021/03/23 09:40:17;;;;;;;14.13;6.37;;;;;;;8.31;57.83;100157.92;251635;1105;115194;-68
2021/03/23 09:45:27;;;;;;;10.25;6.87;;;;;;;8.38;58.78;100150.79;253502;1105;116119;-66
2021/03/23 09:50:57;;;;;;;12.58;7.53;;;;;;;8.36;60.48;100147.52;253279;1104;125141;-68
2021/03/23 09:56:07;;;;;;;11.57;7.83;;;;;;;8.43;57.80;100137.69;253672;1104;116172;-65
2021/03/23 10:01:29;;;;;;;14.75;7.53;;;;;;;8.61;57.30;100140.46;254911;1105;116726;-64
2021/03/23 10:06:52;;;;;;;13.72;7.50;;;;;;;8.88;57.19;100141.13;253446;1104;115974;-67
2021/03/23 10:11:56;;;;;;;10.18;5.90;;;;;;;8.60;57.56;100143.33;254778;1104;115714;-63
2021/03/23 10:17:23;;;;;;;9.30;3.50;;;;;;;8.92;55.53;100139.67;254744;1105;115299;-66
2021/03/23 10:22:31;;;;;;;11.43;6.20;;;;;;;9.36;56.79;100145.94;253675;1105;115875;-64
2021/03/23 10:27:37;;;;;;;8.50;5.00;;;;;;;9.36;54.34;100153.91;253698;1105;115715;-65
2021/03/23 10:32:41;;;;;;;;;;;;;;;9.39;53.09;100142.84;251817;1105;115180;-66
2021/03/23 10:37:47;;;;;;;11.12;5.72;;;;;;;9.16;55.87;100143.43;254073;1105;104197;-66
2021/03/23 10:42:54;;;;;;;11.65;6.40;;;;;;;9.52;53.38;100142.72;251991;1105;138968;-68
2021/03/23 10:48:26;;;;;;;9.88;5.55;;;;;;;9.36;55.68;100132.63;251416;1105;116238;-68
2021/03/23 10:53:29;;;;;;;9.20;5.62;;;;;;;9.46;53.87;100154.25;253445;1104;115259;-64
2021/03/23 10:58:32;;;;;;;10.67;6.30;;;;;;;9.37;56.20;100153.70;251377;1105;115915;-65
2021/03/23 11:03:41;;;;;;;11.43;7.00;;;;;;;9.39;54.50;100172.92;251682;1105;115615;-63
2021/03/23 11:08:44;;;;;;;27.35;12.15;;;;;;;9.53;55.11;100162.97;252239;1105;115394;-66
2021/03/23 11:13:47;;;;;;;8.83;6.62;;;;;;;9.61;53.99;100173.36;252466;1104;116498;-66
2021/03/23 11:18:50;;;;;;;10.55;7.05;;;;;;;9.58;54.56;100172.97;252773;1104;116119;-65
2021/03/23 11:23:56;;;;;;;9.60;5.10;;;;;;;9.35;53.71;100173.57;251965;1105;116718;-65
2021/03/23 11:29:03;;;;;;;8.28;7.25;;;;;;;9.57;54.46;100171.34;251499;1105;119448;-65
2021/03/23 11:34:07;;;;;;;17.20;6.45;;;;;;;9.55;54.43;100170.74;252925;1105;116194;-66
2021/03/23 11:39:12;;;;;;;16.97;6.87;;;;;;;9.42;55.48;100175.16;253829;1105;115855;-67
2021/03/23 11:44:24;;;;;;;7.60;5.87;;;;;;;9.06;55.67;100183.78;251793;1105;117060;-66
2021/03/23 11:49:50;;;;;;;5.37;3.47;;;;;;;9.00;54.30;100176.66;253848;1104;115601;-66
2021/03/23 11:54:55;;;;;;;17.10;6.50;;;;;;;8.74;56.08;100176.80;251779;1105;139549;-66
2021/03/23 11:59:59;;;;;;;13.03;6.55;;;;;;;8.86;56.77;100183.09;252353;1104;116517;-66
2021/03/23 12:05:05;;;;;;;12.45;6.05;;;;;;;8.84;55.32;100186.98;253206;1105;114853;-67
2021/03/23 12:10:20;;;;;;;9.55;7.20;;;;;;;9.03;56.18;100180.73;253748;1104;115497;-68
2021/03/23 12:15:43;;;;;;;10.07;6.77;;;;;;;9.22;55.05;100186.95;252774;1105;114967;-67
2021/03/23 12:20:54;;;;;;;10.18;7.22;;;;;;;9.23;53.92;100178.75;253933;1104;115105;-68
2021/03/23 12:26:01;;;;;;;8.68;5.50;;;;;;;9.90;54.80;100181.70;253300;1105;115585;-67
2021/03/23 12:31:04;;;;;;;8.83;4.55;;;;;;;9.87;52.73;100177.62;252315;1105;117187;-64
2021/03/23 12:36:09;;;;;;;6.67;4.20;;;;;;;9.71;53.90;100188.84;252091;1105;115350;-64
2021/03/23 12:41:19;;;;;;;6.50;5.55;;;;;;;9.59;54.38;100180.74;253555;1105;116670;-65
2021/03/23 12:46:22;;;;;;;11.50;6.75;;;;;;;9.79;52.45;100169.91;251708;1104;116899;-65
2021/03/23 12:51:40;;;;;;;8.50;5.97;;;;;;;9.63;52.64;100176.62;251534;1105;117211;-66
2021/03/23 12:56:44;;;;;;;12.60;8.27;;;;;;;9.47;52.91;100174.52;251706;1105;116888;-68
2021/03/23 13:01:48;;;;;;;7.90;5.15;;;;;;;9.75;50.57;100174.08;251234;1105;115764;-67
2021/03/23 13:06:55;;;;;;;12.95;7.10;;;;;;;9.68;51.41;100190.09;251646;1105;115843;-68
2021/03/23 13:11:58;;;;;;;8.48;5.83;;;;;;;9.88;50.54;100183.77;251863;1105;116175;-68
2021/03/23 13:17:01;;;;;;;4.37;3.62;;;;;;;10.34;49.96;100180.68;251867;1105;116030;-69
2021/03/23 13:22:05;;;;;;;11.10;6.78;;;;;;;10.53;50.04;100187.62;251725;1104;116244;-67
2021/03/23 13:27:25;;;;;;;5.47;4.58;;;;;;;10.69;49.33;100184.36;251524;1105;116796;-67
2021/03/23 13:32:30;;;;;;;9.53;6.22;;;;;;;10.98;47.94;100187.27;251709;1105;117499;-66
2021/03/23 13:37:33;;;;;;;4.37;3.75;;;;;;;11.04;45.50;100186.34;251600;1105;117744;-68
2021/03/23 13:42:38;;;;;;;2.95;1.98;;;;;;;11.04;45.25;100181.81;252151;1105;116262;-67
2021/03/23 13:47:44;;;;;;;8.38;4.92;;;;;;;11.03;46.20;100182.86;251595;1105;116257;-67
2021/03/23 13:52:55;;;;;;;8.40;6.37;;;;;;;10.73;48.36;100182.03;251485;1105;116743;-67
2021/03/23 13:58:02;;;;;;;12.10;5.65;;;;;;;10.48;46.71;100173.33;253684;1104;117176;-67
2021/03/23 14:03:06;;;;;;;9.28;4.72;;;;;;;10.42;47.29;100170.52;252373;1105;116936;-67
2021/03/23 14:08:18;;;;;;;9.03;4.37;;;;;;;10.39;48.40;100168.32;252814;1105;116493;-65
2021/03/23 14:13:24;;;;;;;4.53;3.37;;;;;;;10.44;47.32;100163.11;254968;1105;117551;-69
2021/03/23 14:18:28;;;;;;;6.08;5.37;;;;;;;10.70;47.35;100153.19;254667;1105;114733;-69
2021/03/23 14:23:41;;;;;;;5.47;4.28;;;;;;;10.79;46.95;100149.95;254759;1105;115718;-64
2021/03/23 14:28:52;;;;;;;13.18;10.15;;;;;;;10.65;49.34;100155.70;253701;1104;116698;-65
2021/03/23 14:33:56;;;;;;;15.85;9.35;;;;;;;10.40;49.39;100163.78;252986;1104;117093;-65
2021/03/23 14:39:07;;;;;;;23.27;13.43;;;;;;;10.51;49.69;100168.37;252463;1105;116190;-66
2021/03/23 14:44:16;;;;;;;11.03;7.70;;;;;;;10.10;48.70;100166.33;252663;1104;115907;-65
2021/03/23 14:49:21;;;;;;;6.53;4.83;;;;;;;9.92;48.56;100168.98;253237;1105;116121;-67
2021/03/23 14:54:29;;;;;;;10.68;8.90;;;;;;;9.69;49.99;100170.43;251694;1105;115735;-67
2021/03/23 14:59:35;;;;;;;20.97;12.90;;;;;;;9.65;50.67;100174.56;252815;1105;117500;-67
2021/03/23 15:04:40;;;;;;;9.70;8.75;;;;;;;9.42;51.28;100172.50;251598;1105;116767;-67
2021/03/23 15:09:45;;;;;;;8.43;5.87;;;;;;;9.23;51.47;100178.75;251705;1105;116311;-68
2021/03/23 15:14:49;;;;;;;9.28;5.85;;;;;;;9.12;52.54;100174.14;252057;1105;117007;-70
2021/03/23 15:19:53;;;;;;;9.85;5.40;;;;;;;9.09;52.84;100177.23;251638;1105;116004;-66
2021/03/23 15:24:57;;;;;;;9.93;5.75;;;;;;;9.07;54.47;100182.76;251605;1105;116834;-66
2021/03/23 15:30:01;;;;;;;9.50;6.17;;;;;;;8.99;53.30;100185.66;251610;1105;116673;-66
2021/03/23 15:35:24;;;;;;;9.03;5.77;;;;;;;8.78;54.04;100188.65;251540;1105;116124;-67
2021/03/23 15:40:29;;;;;;;8.48;5.53;;;;;;;8.70;55.71;100197.67;251565;1105;116397;-66
2021/03/23 15:45:32;;;;;;;10.48;6.10;;;;;;;8.57;54.83;100197.71;252645;1104;116978;-67
2021/03/23 15:50:35;;;;;;;20.10;10.53;;;;;;;8.49;55.28;100203.28;252042;1105;115752;-66
2021/03/23 15:55:39;;;;;;;14.98;10.38;;;;;;;8.44;55.66;100189.80;252875;1105;117093;-67
2021/03/23 16:00:42;;;;;;;21.45;11.95;;;;;;;8.37;55.76;100200.45;252840;1105;117679;-67
2021/03/23 16:05:48;;;;;;;12.47;10.67;;;;;;;8.25;55.11;100202.09;252401;1104;115524;-66
2021/03/23 16:10:52;;;;;;;7.28;5.70;;;;;;;8.17;56.40;100204.97;253432;1104;117666;-67
2021/03/23 16:15:56;;;;;;;6.00;4.00;;;;;;;8.11;57.17;100213.76;254892;1105;115280;-66
2021/03/23 16:21:01;;;;;;;4.65;4.25;;;;;;;7.99;57.51;100218.86;253847;1104;114582;-65
2021/03/23 16:26:07;;;;;;;8.68;5.97;;;;;;;7.99;58.32;100231.32;255042;1104;115182;-64
2021/03/23 16:31:25;;;;;;;13.50;6.10;;;;;;;7.89;59.49;100228.29;254142;1105;114844;-64
2021/03/23 16:36:28;;;;;;;6.33;3.92;;;;;;;7.77;59.74;100238.69;254680;1104;115492;-66
2021/03/23 16:41:31;;;;;;;5.17;3.65;;;;;;;7.74;59.76;100247.05;252900;1105;114636;-69
2021/03/23 16:46:34;;;;;;;5.63;4.17;;;;;;;7.67;60.42;100248.88;251524;1104;115704;-69
2021/03/23 16:51:47;;;;;;;9.45;6.85;;;;;;;7.59;61.57;100243.80;251640;1105;115365;-66
2021/03/23 16:56:51;;;;;;;10.43;5.90;;;;;;;7.47;61.57;100250.70;251581;1105;114750;-69
2021/03/23 17:01:54;;;;;;;9.35;5.62;;;;;;;7.40;62.35;100254.16;252047;1104;115429;-67
2021/03/23 17:06:59;;;;;;;14.28;6.35;;;;;;;7.29;63.57;100256.60;252321;1105;114708;-67
2021/03/23 17:12:03;;;;;;;13.65;6.05;;;;;;;7.21;63.17;100270.03;251687;1105;115831;-67
2021/03/23 17:17:10;;;;;;;4.67;4.15;;;;;;;7.09;64.48;100269.78;253198;1105;115560;-70
2021/03/23 17:22:19;;;;;;;8.83;5.23;;;;;;;7.01;64.21;100280.58;252007;1105;115104;-67
2021/03/23 17:27:29;;;;;;;6.37;4.97;;;;;;;6.94;64.54;100275.25;252367;1105;115010;-66
2021/03/23 17:32:32;;;;;;;8.38;5.28;;;;;;;6.87;64.88;100274.40;252220;1105;115360;-68
2021/03/23 17:37:36;;;;;;;9.28;6.47;;;;;;;6.81;65.78;100280.48;251557;1105;115460;-71
2021/03/23 17:42:59;;;;;;;9.15;5.97;;;;;;;6.77;65.47;100287.19;252386;1105;115200;-68
2021/03/23 17:48:04;;;;;;;24.85;11.83;;;;;;;6.75;66.18;100295.33;251798;1105;114521;-67
2021/03/23 17:53:09;;;;;;;23.32;11.97;;;;;;;6.75;65.38;100290.02;251595;1105;116669;-67
2021/03/23 17:58:12;;;;;;;21.57;9.73;;;;;;;6.72;65.75;100303.69;253698;1104;115063;-68
2021/03/23 18:03:17;;;;;;;20.97;8.68;;;;;;;6.73;65.80;100302.65;253690;1105;115288;-66
2021/03/23 18:08:21;;;;;;;11.73;6.25;;;;;;;6.69;66.40;100319.16;251594;1105;115833;-66
2021/03/23 18:13:28;;;;;;;12.45;5.83;;;;;;;6.65;66.04;100315.26;254687;1105;116030;-69
2021/03/23 18:18:31;;;;;;;7.87;3.83;;;;;;;6.58;66.26;100323.16;253960;1104;114711;-69
2021/03/23 18:23:35;;;;;;;7.90;4.87;;;;;;;6.56;66.93;100324.36;254018;1105;114802;-69
2021/03/23 18:28:38;;;;;;;3.30;2.80;;;;;;;6.46;67.22;100332.64;254933;1105;115308;-69
2021/03/23 18:33:42;;;;;;;9.75;5.75;;;;;;;6.48;66.63;100345.69;254935;1105;115016;-66
2021/03/23 18:38:45;;;;;;;7.30;4.45;;;;;;;6.45;67.03;100343.42;254716;1105;114940;-65
2021/03/23 18:43:48;;;;;;;10.20;4.97;;;;;;;6.48;66.97;100348.34;254195;1104;115859;-68
2021/03/23 18:48:52;;;;;;;7.80;4.47;;;;;;;6.37;68.01;100355.83;251367;1105;116160;-66
2021/03/23 18:53:56;;;;;;;8.63;5.60;;;;;;;6.35;68.53;100360.49;253622;1104;114582;-68
2021/03/23 18:59:00;;;;;;;4.95;4.00;;;;;;;6.28;69.36;100364.91;251817;1105;114635;-67
2021/03/23 19:04:03;;;;;;;9.28;4.87;;;;;;;6.21;68.58;100363.21;252800;1104;114504;-67
2021/03/23 19:09:06;;;;;;;8.00;5.92;;;;;;;6.15;69.16;100354.20;252275;1104;115808;-67
2021/03/23 19:14:10;;;;;;;7.27;6.37;;;;;;;6.17;68.98;100367.24;251803;1105;117298;-67
2021/03/23 19:19:13;;;;;;;10.90;6.60;;;;;;;6.15;69.00;100370.08;251665;1105;115796;-67
2021/03/23 19:24:17;;;;;;;9.97;6.63;;;;;;;6.14;69.08;100383.50;252932;1104;115572;-64
2021/03/23 19:29:21;;;;;;;9.47;6.37;;;;;;;6.05;69.49;100388.95;252002;1104;115153;-65
2021/03/23 19:34:38;;;;;;;9.83;7.12;;;;;;;5.93;69.71;100382.51;251749;1105;115351;-68
2021/03/23 19:39:42;;;;;;;10.03;5.53;;;;;;;5.81;70.00;100396.41;252411;1104;115731;-68
2021/03/23 19:44:45;;;;;;;14.45;6.95;;;;;;;5.77;70.63;100403.08;253556;1104;115555;-66
2021/03/23 19:49:48;;;;;;;15.40;7.47;;;;;;;5.78;70.02;100400.25;252603;1104;117208;-66
2021/03/23 19:54:52;;;;;;;7.40;6.00;;;;;;;5.73;70.25;100408.73;251483;1105;116457;-66
2021/03/23 19:59:56;;;;;;;12.60;7.50;;;;;;;5.62;70.72;100405.75;252030;1105;115683;-65
2021/03/23 20:04:59;;;;;;;10.28;6.35;;;;;;;5.55;69.96;100405.66;253133;1104;117092;-67
2021/03/23 20:10:05;;;;;;;11.38;6.87;;;;;;;5.46;70.98;100430.59;253800;1104;116915;-65
2021/03/23 20:15:13;;;;;;;10.85;6.78;;;;;;;5.45;70.70;100436.06;251954;1105;115994;-65
2021/03/23 20:20:23;;;;;;;14.63;8.03;;;;;;;5.51;70.14;100435.30;252768;1105;118437;-64
2021/03/23 20:25:31;;;;;;;13.65;7.85;;;;;;;5.46;70.74;100449.11;252229;1105;116599;-67
2021/03/23 20:30:35;;;;;;;14.47;8.33;;;;;;;5.44;70.68;100451.11;255002;1104;117510;-66
2021/03/23 20:35:43;;;;;;;11.93;8.90;;;;;;;5.35;70.84;100453.02;254656;1104;118901;-69
2021/03/23 20:40:47;;;;;;;16.15;8.23;;;;;;;5.32;71.06;100455.20;254840;1104;115563;-66
2021/03/23 20:45:52;;;;;;;13.93;8.75;;;;;;;5.29;71.21;100469.61;254808;1104;115232;-67
2021/03/23 20:50:56;;;;;;;13.95;8.73;;;;;;;5.33;70.58;100459.49;252760;1105;115866;-66
2021/03/23 20:56:01;;;;;;;12.83;9.63;;;;;;;5.33;71.21;100475.36;251903;1105;115812;-66
2021/03/23 21:01:05;;;;;;;14.93;7.78;;;;;;;5.32;70.85;100466.60;251590;1105;116001;-66
2021/03/23 21:06:11;;;;;;;17.45;9.68;;;;;;;5.26;70.71;100469.15;253263;1104;115925;-66
2021/03/23 21:11:26;;;;;;;14.83;8.13;;;;;;;5.18;71.54;100482.47;253271;1104;114964;-65
2021/03/23 21:16:35;;;;;;;9.80;6.08;;;;;;;5.13;71.05;100482.19;252886;1105;115808;-67
2021/03/23 21:21:42;;;;;;;16.37;7.37;;;;;;;5.08;71.40;100474.80;252830;1105;115954;-67
2021/03/23 21:26:46;;;;;;;12.23;8.30;;;;;;;5.03;71.49;100483.27;252688;1105;116437;-65
2021/03/23 21:31:50;;;;;;;11.15;7.87;;;;;;;5.08;71.46;100486.20;251964;1105;115241;-67
2021/03/23 21:36:55;;;;;;;15.85;7.78;;;;;;;5.06;71.85;100482.09;252513;1105;115362;-65
2021/03/23 21:41:59;;;;;;;12.98;6.67;;;;;;;4.92;72.03;100482.88;252374;1105;115407;-68
2021/03/23 21:47:04;;;;;;;19.10;9.60;;;;;;;4.90;72.04;100480.41;251620;1104;116023;-67
2021/03/23 21:52:07;;;;;;;12.23;9.15;;;;;;;4.84;72.54;100475.88;251988;1105;114824;-68
2021/03/23 21:57:12;;;;;;;15.80;8.58;;;;;;;4.77;72.50;100479.40;252059;1105;115695;-67
2021/03/23 22:02:16;;;;;;;18.23;7.95;;;;;;;4.74;72.16;100470.83;252346;1104;115483;-68
2021/03/23 22:07:20;;;;;;;15.80;8.57;;;;;;;4.78;72.12;100467.84;251918;1105;117072;-69
2021/03/23 22:12:25;;;;;;;13.67;7.70;;;;;;;4.80;72.22;100468.48;253733;1105;114995;-68
2021/03/23 22:17:29;;;;;;;14.25;7.15;;;;;;;4.76;72.46;100468.02;251593;1105;115718;-68
2021/03/23 22:22:33;;;;;;;15.25;8.05;;;;;;;4.69;72.87;100480.28;252740;1105;115930;-67
2021/03/23 22:27:36;;;;;;;12.55;8.13;;;;;;;4.61;72.74;100483.80;251614;1105;117292;-69
2021/03/23 22:32:40;;;;;;;16.85;10.68;;;;;;;4.58;72.91;100484.19;254917;1104;115707;-67
2021/03/23 22:37:46;;;;;;;18.32;9.85;;;;;;;4.65;73.18;100479.81;252993;1104;117597;-66
2021/03/23 22:42:51;;;;;;;24.12;9.93;;;;;;;4.71;72.40;100486.21;253117;1105;115521;-67
2021/03/23 22:47:57;;;;;;;11.33;8.10;;;;;;;4.71;72.80;100488.85;251888;1105;117544;-66
2021/03/23 22:53:01;;;;;;;15.38;6.95;;;;;;;4.64;72.54;100495.84;255061;1104;115627;-70
2021/03/23 22:58:06;;;;;;;12.30;7.40;;;;;;;4.60;73.41;100489.27;252238;1105;117467;-70
2021/03/23 23:03:13;;;;;;;21.50;10.60;;;;;;;4.61;72.70;100490.91;251473;1105;116810;-69
2021/03/23 23:08:27;;;;;;;24.87;12.43;;;;;;;4.61;73.28;100490.91;252628;1105;116737;-68
2021/03/23 23:13:30;;;;;;;24.65;9.63;;;;;;;4.58;73.31;100493.93;251919;1105;116245;-68
2021/03/23 23:18:36;;;;;;;19.32;9.43;;;;;;;4.58;72.89;100507.95;252298;1105;115735;-68
2021/03/23 23:24:07;;;;;;;15.72;6.70;;;;;;;4.54;73.08;100505.84;252479;1105;115966;-65